sensor_id;sensor_type;location;lat;lon;timestamp;P1;durP1;ratioP1;P2;durP2;ratioP2
40012;SDS011;37387;42.672;23.334;2022-11-20T00:00:40;4.5;;;0.8;;
40012;SDS011;37387;42.672;23.334;2022-11-20T00:01:40;2.9;;;1.2;;
40012;SDS011;37387;42.672;23.334;2022-11-20T00:02:40;1.8;;;0.9;;
40012;SDS011;37387;42.672;23.334;2022-11-20T00:03:41;2.1;;;1.8;;
40012;SDS011;37387;42.672;23.334;2022-11-20T00:04:40;5.6;;;2.1;;
40012;SDS011;37387;42.672;23.334;2022-11-20T00:05:40;5.6;;;1.7;;
40012;SDS011;37387;42.672;23.334;2022-11-20T00:06:40;7.8;;;2.0;;
40012;SDS011;37387;42.672;23.334;2022-11-20T00:07:40;5.1;;;2.5;;
40012;SDS011;37387;42.672;23.334;2022-11-20T00:08:40;5.1;;;1.8;;
40012;SDS011;37387;42.672;23.334;2022-11-20T00:09:40;4.5;;;1.9;;
40012;SDS011;37387;42.672;23.334;2022-11-20T00:10:41;4.6;;;2.1;;
40012;SDS011;37387;42.672;23.334;2022-11-20T00:12:41;5.6;;;3.4;;
40012;SDS011;37387;42.672;23.334;2022-11-20T00:13:41;5.4;;;4.5;;
40012;SDS011;37387;42.672;23.334;2022-11-20T00:14:41;9.7;;;4.7;;
40012;SDS011;37387;42.672;23.334;2022-11-20T00:15:41;9.7;;;4.6;;
40012;SDS011;37387;42.672;23.334;2022-11-20T00:16:41;8.5;;;4.0;;
40012;SDS011;37387;42.672;23.334;2022-11-20T00:17:41;8.9;;;1.2;;
40012;SDS011;37387;42.672;23.334;2022-11-20T00:18:41;2.4;;;1.5;;
40012;SDS011;37387;42.672;23.334;2022-11-20T00:19:41;1.7;;;0.9;;
40012;SDS011;37387;42.672;23.334;2022-11-20T00:20:41;1.7;;;1.2;;
40012;SDS011;37387;42.672;23.334;2022-11-20T00:21:41;2.4;;;2.8;;
40012;SDS011;37387;42.672;23.334;2022-11-20T00:22:41;8.4;;;2.2;;
40012;SDS011;37387;42.672;23.334;2022-11-20T00:23:41;3.5;;;2.0;;
40012;SDS011;37387;42.672;23.334;2022-11-20T00:24:41;5.8;;;1.1;;
40012;SDS011;37387;42.672;23.334;2022-11-20T00:25:41;2.0;;;1.5;;
40012;SDS011;37387;42.672;23.334;2022-11-20T00:26:41;3.5;;;1.8;;
40012;SDS011;37387;42.672;23.334;2022-11-20T00:27:41;4.7;;;1.7;;
40012;SDS011;37387;42.672;23.334;2022-11-20T00:28:42;3.5;;;1.9;;
40012;SDS011;37387;42.672;23.334;2022-11-20T00:29:41;6.4;;;1.3;;
40012;SDS011;37387;42.672;23.334;2022-11-20T00:30:41;2.1;;;1.9;;
40012;SDS011;37387;42.672;23.334;2022-11-20T00:31:41;4.0;;;0.8;;
40012;SDS011;37387;42.672;23.334;2022-11-20T00:32:41;2.0;;;1.1;;
40012;SDS011;37387;42.672;23.334;2022-11-20T00:33:42;4.7;;;1.0;;
40012;SDS011;37387;42.672;23.334;2022-11-20T00:34:41;5.8;;;0.9;;
40012;SDS011;37387;42.672;23.334;2022-11-20T00:35:42;2.3;;;0.6;;
40012;SDS011;37387;42.672;23.334;2022-11-20T00:36:42;1.4;;;0.7;;
40012;SDS011;37387;42.672;23.334;2022-11-20T00:37:42;1.4;;;1.0;;
40012;SDS011;37387;42.672;23.334;2022-11-20T00:38:42;4.0;;;1.5;;
40012;SDS011;37387;42.672;23.334;2022-11-20T00:39:42;4.0;;;1.2;;
40012;SDS011;37387;42.672;23.334;2022-11-20T00:40:42;3.6;;;0.9;;
40012;SDS011;37387;42.672;23.334;2022-11-20T00:41:42;4.1;;;1.1;;
40012;SDS011;37387;42.672;23.334;2022-11-20T00:42:42;4.1;;;0.9;;
40012;SDS011;37387;42.672;23.334;2022-11-20T00:43:42;1.7;;;0.7;;
40012;SDS011;37387;42.672;23.334;2022-11-20T00:45:42;1.8;;;0.6;;
40012;SDS011;37387;42.672;23.334;2022-11-20T00:46:42;1.8;;;0.7;;
40012;SDS011;37387;42.672;23.334;2022-11-20T00:47:42;2.1;;;0.8;;
40012;SDS011;37387;42.672;23.334;2022-11-20T00:48:42;2.3;;;0.7;;
40012;SDS011;37387;42.672;23.334;2022-11-20T00:49:42;2.0;;;0.9;;
40012;SDS011;37387;42.672;23.334;2022-11-20T00:50:42;4.0;;;1.1;;
40012;SDS011;37387;42.672;23.334;2022-11-20T00:51:42;4.0;;;0.8;;
40012;SDS011;37387;42.672;23.334;2022-11-20T00:52:43;1.8;;;0.9;;
40012;SDS011;37387;42.672;23.334;2022-11-20T00:53:43;1.3;;;0.7;;
40012;SDS011;37387;42.672;23.334;2022-11-20T00:54:43;2.4;;;0.6;;
40012;SDS011;37387;42.672;23.334;2022-11-20T00:55:43;2.4;;;0.5;;
40012;SDS011;37387;42.672;23.334;2022-11-20T00:56:43;1.7;;;0.3;;
40012;SDS011;37387;42.672;23.334;2022-11-20T00:57:43;1.6;;;0.5;;
40012;SDS011;37387;42.672;23.334;2022-11-20T00:58:43;1.6;;;0.8;;
40012;SDS011;37387;42.672;23.334;2022-11-20T00:59:43;3.5;;;0.6;;
40012;SDS011;37387;42.672;23.334;2022-11-20T01:00:43;2.2;;;0.5;;
40012;SDS011;37387;42.672;23.334;2022-11-20T01:03:44;3.5;;;0.4;;
40012;SDS011;37387;42.672;23.334;2022-11-20T01:04:43;1.6;;;0.7;;
40012;SDS011;37387;42.672;23.334;2022-11-20T01:06:43;3.0;;;0.6;;
40012;SDS011;37387;42.672;23.334;2022-11-20T01:07:44;1.5;;;0.5;;
40012;SDS011;37387;42.672;23.334;2022-11-20T01:12:44;1.9;;;0.8;;
40012;SDS011;37387;42.672;23.334;2022-11-20T01:13:44;1.6;;;0.4;;
40012;SDS011;37387;42.672;23.334;2022-11-20T01:14:44;1.1;;;0.5;;
40012;SDS011;37387;42.672;23.334;2022-11-20T01:15:44;1.2;;;0.4;;
40012;SDS011;37387;42.672;23.334;2022-11-20T01:16:45;3.1;;;0.6;;
40012;SDS011;37387;42.672;23.334;2022-11-20T01:18:45;1.8;;;0.5;;
40012;SDS011;37387;42.672;23.334;2022-11-20T01:20:45;1.5;;;0.4;;
40012;SDS011;37387;42.672;23.334;2022-11-20T01:22:45;1.4;;;0.3;;
40012;SDS011;37387;42.672;23.334;2022-11-20T01:23:45;1.8;;;0.8;;
40012;SDS011;37387;42.672;23.334;2022-11-20T01:24:45;2.0;;;0.6;;
40012;SDS011;37387;42.672;23.334;2022-11-20T01:26:46;1.1;;;0.4;;
40012;SDS011;37387;42.672;23.334;2022-11-20T01:27:45;1.3;;;0.6;;
40012;SDS011;37387;42.672;23.334;2022-11-20T01:28:45;3.0;;;0.4;;
40012;SDS011;37387;42.672;23.334;2022-11-20T01:29:45;0.5;;;0.5;;
40012;SDS011;37387;42.672;23.334;2022-11-20T01:32:45;1.5;;;0.6;;
40012;SDS011;37387;42.672;23.334;2022-11-20T01:33:46;1.5;;;1.3;;
40012;SDS011;37387;42.672;23.334;2022-11-20T01:34:46;3.2;;;0.6;;
40012;SDS011;37387;42.672;23.334;2022-11-20T01:35:46;2.7;;;0.8;;
40012;SDS011;37387;42.672;23.334;2022-11-20T01:36:46;2.7;;;0.5;;
40012;SDS011;37387;42.672;23.334;2022-11-20T01:37:46;1.8;;;0.9;;
40012;SDS011;37387;42.672;23.334;2022-11-20T01:38:46;2.0;;;0.7;;
40012;SDS011;37387;42.672;23.334;2022-11-20T01:41:46;5.0;;;0.5;;
40012;SDS011;37387;42.672;23.334;2022-11-20T01:42:47;3.3;;;0.9;;
40012;SDS011;37387;42.672;23.334;2022-11-20T01:43:48;2.5;;;1.1;;
40012;SDS011;37387;42.672;23.334;2022-11-20T01:44:48;2.4;;;1.6;;
40012;SDS011;37387;42.672;23.334;2022-11-20T01:45:55;2.4;;;2.9;;
40012;SDS011;37387;42.672;23.334;2022-11-20T01:46:49;6.4;;;0.7;;
40012;SDS011;37387;42.672;23.334;2022-11-20T01:47:46;4.1;;;1.4;;
40012;SDS011;37387;42.672;23.334;2022-11-20T01:48:48;4.1;;;1.1;;
40012;SDS011;37387;42.672;23.334;2022-11-20T01:50:47;1.6;;;0.9;;
40012;SDS011;37387;42.672;23.334;2022-11-20T01:51:47;1.6;;;1.1;;
40012;SDS011;37387;42.672;23.334;2022-11-20T01:52:47;3.3;;;1.0;;
40012;SDS011;37387;42.672;23.334;2022-11-20T01:53:47;1.8;;;0.8;;
40012;SDS011;37387;42.672;23.334;2022-11-20T01:54:47;2.8;;;1.4;;
40012;SDS011;37387;42.672;23.334;2022-11-20T01:55:48;2.9;;;0.8;;
40012;SDS011;37387;42.672;23.334;2022-11-20T01:56:47;2.0;;;1.1;;
40012;SDS011;37387;42.672;23.334;2022-11-20T01:57:47;2.5;;;1.0;;
40012;SDS011;37387;42.672;23.334;2022-11-20T01:58:48;2.5;;;1.2;;
40012;SDS011;37387;42.672;23.334;2022-11-20T01:59:47;4.0;;;0.8;;
40012;SDS011;37387;42.672;23.334;2022-11-20T02:00:47;4.4;;;1.1;;
40012;SDS011;37387;42.672;23.334;2022-11-20T02:01:47;4.4;;;0.6;;
40012;SDS011;37387;42.672;23.334;2022-11-20T02:02:48;2.2;;;0.4;;
40012;SDS011;37387;42.672;23.334;2022-11-20T02:03:48;2.4;;;0.6;;
40012;SDS011;37387;42.672;23.334;2022-11-20T02:04:48;1.1;;;1.0;;
40012;SDS011;37387;42.672;23.334;2022-11-20T02:05:49;2.1;;;0.9;;
40012;SDS011;37387;42.672;23.334;2022-11-20T02:06:48;2.9;;;0.5;;
40012;SDS011;37387;42.672;23.334;2022-11-20T02:07:48;2.3;;;0.7;;
40012;SDS011;37387;42.672;23.334;2022-11-20T02:08:48;6.0;;;1.5;;
40012;SDS011;37387;42.672;23.334;2022-11-20T02:09:48;6.0;;;1.7;;
40012;SDS011;37387;42.672;23.334;2022-11-20T02:10:48;4.4;;;0.8;;
40012;SDS011;37387;42.672;23.334;2022-11-20T02:11:48;2.9;;;1.3;;
40012;SDS011;37387;42.672;23.334;2022-11-20T02:12:48;3.3;;;1.8;;
40012;SDS011;37387;42.672;23.334;2022-11-20T02:13:48;5.7;;;0.6;;
40012;SDS011;37387;42.672;23.334;2022-11-20T02:14:48;2.5;;;0.7;;
40012;SDS011;37387;42.672;23.334;2022-11-20T02:16:48;2.4;;;0.8;;
40012;SDS011;37387;42.672;23.334;2022-11-20T02:17:48;1.8;;;1.0;;
40012;SDS011;37387;42.672;23.334;2022-11-20T02:18:49;3.7;;;0.8;;
40012;SDS011;37387;42.672;23.334;2022-11-20T02:19:48;1.5;;;0.7;;
40012;SDS011;37387;42.672;23.334;2022-11-20T02:20:50;1.5;;;0.8;;
40012;SDS011;37387;42.672;23.334;2022-11-20T02:21:50;2.7;;;0.9;;
40012;SDS011;37387;42.672;23.334;2022-11-20T02:22:50;2.7;;;1.0;;
40012;SDS011;37387;42.672;23.334;2022-11-20T02:24:49;2.8;;;0.4;;
40012;SDS011;37387;42.672;23.334;2022-11-20T02:25:49;1.7;;;0.6;;
40012;SDS011;37387;42.672;23.334;2022-11-20T02:27:49;4.5;;;0.7;;
40012;SDS011;37387;42.672;23.334;2022-11-20T02:28:49;4.5;;;0.4;;
40012;SDS011;37387;42.672;23.334;2022-11-20T02:33:53;1.0;;;0.5;;
40012;SDS011;37387;42.672;23.334;2022-11-20T02:34:49;1.9;;;0.8;;
40012;SDS011;37387;42.672;23.334;2022-11-20T02:36:50;3.7;;;0.4;;
40012;SDS011;37387;42.672;23.334;2022-11-20T02:37:50;1.4;;;0.5;;
40012;SDS011;37387;42.672;23.334;2022-11-20T02:39:51;1.4;;;0.4;;
40012;SDS011;37387;42.672;23.334;2022-11-20T02:41:50;2.0;;;0.3;;
40012;SDS011;37387;42.672;23.334;2022-11-20T02:42:51;3.8;;;0.5;;
40012;SDS011;37387;42.672;23.334;2022-11-20T02:43:50;2.1;;;0.3;;
40012;SDS011;37387;42.672;23.334;2022-11-20T02:44:50;2.1;;;0.6;;
40012;SDS011;37387;42.672;23.334;2022-11-20T02:48:50;2.0;;;0.5;;
40012;SDS011;37387;42.672;23.334;2022-11-20T02:51:51;2.1;;;0.4;;
40012;SDS011;37387;42.672;23.334;2022-11-20T02:52:51;2.2;;;0.6;;
40012;SDS011;37387;42.672;23.334;2022-11-20T02:53:51;2.6;;;0.4;;
40012;SDS011;37387;42.672;23.334;2022-11-20T02:54:51;0.7;;;0.3;;
40012;SDS011;37387;42.672;23.334;2022-11-20T02:55:51;0.7;;;0.5;;
40012;SDS011;37387;42.672;23.334;2022-11-20T02:56:51;5.3;;;0.6;;
40012;SDS011;37387;42.672;23.334;2022-11-20T02:58:51;2.9;;;0.5;;
40012;SDS011;37387;42.672;23.334;2022-11-20T02:59:51;1.7;;;2.5;;
40012;SDS011;37387;42.672;23.334;2022-11-20T03:00:51;3.0;;;0.5;;
40012;SDS011;37387;42.672;23.334;2022-11-20T03:01:51;3.0;;;1.3;;
40012;SDS011;37387;42.672;23.334;2022-11-20T03:02:51;2.4;;;0.4;;
40012;SDS011;37387;42.672;23.334;2022-11-20T03:03:51;2.4;;;0.5;;
40012;SDS011;37387;42.672;23.334;2022-11-20T03:04:51;1.4;;;0.6;;
40012;SDS011;37387;42.672;23.334;2022-11-20T03:06:51;2.1;;;0.5;;
40012;SDS011;37387;42.672;23.334;2022-11-20T03:07:51;1.3;;;0.6;;
40012;SDS011;37387;42.672;23.334;2022-11-20T03:08:52;1.7;;;0.8;;
40012;SDS011;37387;42.672;23.334;2022-11-20T03:09:52;2.9;;;1.3;;
40012;SDS011;37387;42.672;23.334;2022-11-20T03:10:52;2.0;;;0.6;;
40012;SDS011;37387;42.672;23.334;2022-11-20T03:11:52;2.0;;;0.7;;
40012;SDS011;37387;42.672;23.334;2022-11-20T03:13:52;1.7;;;0.8;;
40012;SDS011;37387;42.672;23.334;2022-11-20T03:14:52;1.7;;;0.6;;
40012;SDS011;37387;42.672;23.334;2022-11-20T03:16:52;2.6;;;0.8;;
40012;SDS011;37387;42.672;23.334;2022-11-20T03:17:53;1.8;;;0.6;;
40012;SDS011;37387;42.672;23.334;2022-11-20T03:18:52;4.2;;;0.5;;
40012;SDS011;37387;42.672;23.334;2022-11-20T03:20:56;3.3;;;0.7;;
40012;SDS011;37387;42.672;23.334;2022-11-20T03:21:52;3.3;;;0.6;;
40012;SDS011;37387;42.672;23.334;2022-11-20T03:24:53;2.5;;;0.7;;
40012;SDS011;37387;42.672;23.334;2022-11-20T03:25:53;2.5;;;0.6;;
40012;SDS011;37387;42.672;23.334;2022-11-20T03:26:53;1.8;;;0.8;;
40012;SDS011;37387;42.672;23.334;2022-11-20T03:27:53;2.5;;;1.0;;
40012;SDS011;37387;42.672;23.334;2022-11-20T03:28:53;2.1;;;0.8;;
40012;SDS011;37387;42.672;23.334;2022-11-20T03:29:53;2.5;;;0.7;;
40012;SDS011;37387;42.672;23.334;2022-11-20T03:30:53;1.6;;;0.5;;
40012;SDS011;37387;42.672;23.334;2022-11-20T03:31:53;1.6;;;0.6;;
40012;SDS011;37387;42.672;23.334;2022-11-20T03:32:53;1.9;;;1.4;;
40012;SDS011;37387;42.672;23.334;2022-11-20T03:33:53;2.9;;;0.6;;
40012;SDS011;37387;42.672;23.334;2022-11-20T03:37:53;2.5;;;0.7;;
40012;SDS011;37387;42.672;23.334;2022-11-20T03:39:54;2.5;;;0.5;;
40012;SDS011;37387;42.672;23.334;2022-11-20T03:40:57;1.6;;;0.7;;
40012;SDS011;37387;42.672;23.334;2022-11-20T03:41:54;3.4;;;0.8;;
40012;SDS011;37387;42.672;23.334;2022-11-20T03:42:54;5.1;;;0.7;;
40012;SDS011;37387;42.672;23.334;2022-11-20T03:44:54;1.9;;;0.8;;
40012;SDS011;37387;42.672;23.334;2022-11-20T03:46:54;2.8;;;0.5;;
40012;SDS011;37387;42.672;23.334;2022-11-20T03:47:54;1.6;;;0.6;;
40012;SDS011;37387;42.672;23.334;2022-11-20T03:48:54;1.6;;;0.7;;
40012;SDS011;37387;42.672;23.334;2022-11-20T03:49:54;3.5;;;0.5;;
40012;SDS011;37387;42.672;23.334;2022-11-20T03:52:54;2.0;;;0.4;;
40012;SDS011;37387;42.672;23.334;2022-11-20T03:53:55;2.0;;;0.5;;
40012;SDS011;37387;42.672;23.334;2022-11-20T03:56:54;3.4;;;0.6;;
40012;SDS011;37387;42.672;23.334;2022-11-20T03:58:55;5.3;;;0.7;;
40012;SDS011;37387;42.672;23.334;2022-11-20T03:59:55;2.4;;;1.0;;
40012;SDS011;37387;42.672;23.334;2022-11-20T04:00:55;2.4;;;1.6;;
40012;SDS011;37387;42.672;23.334;2022-11-20T04:01:55;2.6;;;0.7;;
40012;SDS011;37387;42.672;23.334;2022-11-20T04:02:57;4.0;;;0.6;;
40012;SDS011;37387;42.672;23.334;2022-11-20T04:03:55;1.9;;;0.7;;
40012;SDS011;37387;42.672;23.334;2022-11-20T04:04:55;1.2;;;0.4;;
40012;SDS011;37387;42.672;23.334;2022-11-20T04:05:55;2.2;;;0.5;;
40012;SDS011;37387;42.672;23.334;2022-11-20T04:06:55;1.5;;;0.4;;
40012;SDS011;37387;42.672;23.334;2022-11-20T04:07:55;2.2;;;0.7;;
40012;SDS011;37387;42.672;23.334;2022-11-20T04:08:56;2.2;;;0.6;;
40012;SDS011;37387;42.672;23.334;2022-11-20T04:09:55;1.3;;;0.5;;
40012;SDS011;37387;42.672;23.334;2022-11-20T04:10:55;1.3;;;0.6;;
40012;SDS011;37387;42.672;23.334;2022-11-20T04:11:55;2.4;;;0.5;;
40012;SDS011;37387;42.672;23.334;2022-11-20T04:12:55;2.4;;;0.4;;
40012;SDS011;37387;42.672;23.334;2022-11-20T04:14:56;1.6;;;0.5;;
40012;SDS011;37387;42.672;23.334;2022-11-20T04:17:56;1.5;;;0.6;;
40012;SDS011;37387;42.672;23.334;2022-11-20T04:18:56;1.7;;;0.4;;
40012;SDS011;37387;42.672;23.334;2022-11-20T04:21:56;1.1;;;0.6;;
40012;SDS011;37387;42.672;23.334;2022-11-20T04:22:56;2.4;;;0.5;;
40012;SDS011;37387;42.672;23.334;2022-11-20T04:23:56;2.1;;;0.6;;
40012;SDS011;37387;42.672;23.334;2022-11-20T04:24:56;2.1;;;0.5;;
40012;SDS011;37387;42.672;23.334;2022-11-20T04:26:00;2.2;;;0.6;;
40012;SDS011;37387;42.672;23.334;2022-11-20T04:26:56;2.6;;;0.5;;
40012;SDS011;37387;42.672;23.334;2022-11-20T04:28:57;3.2;;;0.9;;
40012;SDS011;37387;42.672;23.334;2022-11-20T04:29:56;3.2;;;0.6;;
40012;SDS011;37387;42.672;23.334;2022-11-20T04:31:57;3.4;;;0.7;;
40012;SDS011;37387;42.672;23.334;2022-11-20T04:32:57;2.7;;;0.6;;
40012;SDS011;37387;42.672;23.334;2022-11-20T04:33:59;2.6;;;0.7;;
40012;SDS011;37387;42.672;23.334;2022-11-20T04:34:57;2.6;;;0.6;;
40012;SDS011;37387;42.672;23.334;2022-11-20T04:35:59;1.8;;;0.8;;
40012;SDS011;37387;42.672;23.334;2022-11-20T04:36:57;1.8;;;0.5;;
40012;SDS011;37387;42.672;23.334;2022-11-20T04:37:57;1.1;;;0.6;;
40012;SDS011;37387;42.672;23.334;2022-11-20T04:38:58;3.5;;;0.5;;
40012;SDS011;37387;42.672;23.334;2022-11-20T04:40:57;1.9;;;0.6;;
40012;SDS011;37387;42.672;23.334;2022-11-20T04:41:57;1.9;;;0.5;;
40012;SDS011;37387;42.672;23.334;2022-11-20T04:44:57;1.4;;;0.6;;
40012;SDS011;37387;42.672;23.334;2022-11-20T04:46:57;2.7;;;0.4;;
40012;SDS011;37387;42.672;23.334;2022-11-20T04:47:57;1.4;;;0.5;;
40012;SDS011;37387;42.672;23.334;2022-11-20T04:48:58;1.9;;;0.2;;
40012;SDS011;37387;42.672;23.334;2022-11-20T04:49:58;1.7;;;0.7;;
40012;SDS011;37387;42.672;23.334;2022-11-20T04:50:58;1.7;;;0.5;;
40012;SDS011;37387;42.672;23.334;2022-11-20T04:52:58;1.7;;;0.4;;
40012;SDS011;37387;42.672;23.334;2022-11-20T04:53:58;1.7;;;0.8;;
40012;SDS011;37387;42.672;23.334;2022-11-20T04:54:58;1.3;;;0.4;;
40012;SDS011;37387;42.672;23.334;2022-11-20T04:55:59;1.3;;;0.5;;
40012;SDS011;37387;42.672;23.334;2022-11-20T04:56:58;2.8;;;0.6;;
40012;SDS011;37387;42.672;23.334;2022-11-20T04:57:58;1.9;;;0.4;;
40012;SDS011;37387;42.672;23.334;2022-11-20T05:01:02;1.7;;;0.6;;
40012;SDS011;37387;42.672;23.334;2022-11-20T05:01:58;1.7;;;0.4;;
40012;SDS011;37387;42.672;23.334;2022-11-20T05:03:58;1.3;;;0.5;;
40012;SDS011;37387;42.672;23.334;2022-11-20T05:04:58;2.2;;;0.6;;
40012;SDS011;37387;42.672;23.334;2022-11-20T05:06:00;2.3;;;0.3;;
40012;SDS011;37387;42.672;23.334;2022-11-20T05:06:59;1.5;;;0.4;;
40012;SDS011;37387;42.672;23.334;2022-11-20T05:08:59;2.8;;;0.5;;
40012;SDS011;37387;42.672;23.334;2022-11-20T05:09:59;2.8;;;0.4;;
40012;SDS011;37387;42.672;23.334;2022-11-20T05:10:59;4.3;;;0.5;;
40012;SDS011;37387;42.672;23.334;2022-11-20T05:12:59;2.0;;;0.7;;
40012;SDS011;37387;42.672;23.334;2022-11-20T05:13:59;4.5;;;0.4;;
40012;SDS011;37387;42.672;23.334;2022-11-20T05:16:01;3.1;;;0.6;;
40012;SDS011;37387;42.672;23.334;2022-11-20T05:16:59;1.6;;;0.7;;
40012;SDS011;37387;42.672;23.334;2022-11-20T05:17:59;2.0;;;0.4;;
40012;SDS011;37387;42.672;23.334;2022-11-20T05:18:59;0.9;;;0.3;;
40012;SDS011;37387;42.672;23.334;2022-11-20T05:19:59;0.9;;;0.5;;
40012;SDS011;37387;42.672;23.334;2022-11-20T05:21:59;1.8;;;0.4;;
40012;SDS011;37387;42.672;23.334;2022-11-20T05:22:59;1.8;;;0.5;;
40012;SDS011;37387;42.672;23.334;2022-11-20T05:24:00;2.3;;;0.3;;
40012;SDS011;37387;42.672;23.334;2022-11-20T05:24:59;1.0;;;0.5;;
40012;SDS011;37387;42.672;23.334;2022-11-20T05:26:00;1.8;;;0.4;;
40012;SDS011;37387;42.672;23.334;2022-11-20T05:29:00;2.7;;;0.3;;
40012;SDS011;37387;42.672;23.334;2022-11-20T05:30:00;1.3;;;0.4;;
40012;SDS011;37387;42.672;23.334;2022-11-20T05:31:04;1.3;;;0.7;;
40012;SDS011;37387;42.672;23.334;2022-11-20T05:33:00;2.0;;;0.6;;
40012;SDS011;37387;42.672;23.334;2022-11-20T05:34:00;4.3;;;1.0;;
40012;SDS011;37387;42.672;23.334;2022-11-20T05:35:00;4.3;;;0.8;;
40012;SDS011;37387;42.672;23.334;2022-11-20T05:36:00;1.2;;;0.2;;
40012;SDS011;37387;42.672;23.334;2022-11-20T05:37:00;1.2;;;0.7;;
40012;SDS011;37387;42.672;23.334;2022-11-20T05:38:00;1.7;;;0.6;;
40012;SDS011;37387;42.672;23.334;2022-11-20T05:39:00;1.7;;;1.6;;
40012;SDS011;37387;42.672;23.334;2022-11-20T05:40:00;1.8;;;0.4;;
40012;SDS011;37387;42.672;23.334;2022-11-20T05:41:04;3.3;;;0.8;;
40012;SDS011;37387;42.672;23.334;2022-11-20T05:42:01;3.3;;;0.4;;
40012;SDS011;37387;42.672;23.334;2022-11-20T05:44:01;2.0;;;0.6;;
40012;SDS011;37387;42.672;23.334;2022-11-20T05:45:02;2.0;;;0.7;;
40012;SDS011;37387;42.672;23.334;2022-11-20T05:46:01;1.8;;;0.6;;
40012;SDS011;37387;42.672;23.334;2022-11-20T05:47:01;1.7;;;0.5;;
40012;SDS011;37387;42.672;23.334;2022-11-20T05:48:01;1.7;;;1.0;;
40012;SDS011;37387;42.672;23.334;2022-11-20T05:49:01;4.8;;;0.5;;
40012;SDS011;37387;42.672;23.334;2022-11-20T05:50:01;2.3;;;0.9;;
40012;SDS011;37387;42.672;23.334;2022-11-20T05:51:02;1.6;;;0.5;;
40012;SDS011;37387;42.672;23.334;2022-11-20T05:52:01;1.6;;;0.8;;
40012;SDS011;37387;42.672;23.334;2022-11-20T05:53:01;2.7;;;0.7;;
40012;SDS011;37387;42.672;23.334;2022-11-20T05:55:01;2.6;;;0.8;;
40012;SDS011;37387;42.672;23.334;2022-11-20T05:57:01;3.1;;;0.7;;
40012;SDS011;37387;42.672;23.334;2022-11-20T05:58:01;1.7;;;0.5;;
40012;SDS011;37387;42.672;23.334;2022-11-20T05:59:01;1.7;;;0.7;;
40012;SDS011;37387;42.672;23.334;2022-11-20T06:02:02;3.7;;;0.8;;
40012;SDS011;37387;42.672;23.334;2022-11-20T06:03:02;3.7;;;0.9;;
40012;SDS011;37387;42.672;23.334;2022-11-20T06:04:02;4.9;;;0.8;;
40012;SDS011;37387;42.672;23.334;2022-11-20T06:06:03;1.7;;;1.3;;
40012;SDS011;37387;42.672;23.334;2022-11-20T06:07:02;4.4;;;1.0;;
40012;SDS011;37387;42.672;23.334;2022-11-20T06:08:02;3.1;;;0.7;;
40012;SDS011;37387;42.672;23.334;2022-11-20T06:09:02;3.1;;;0.8;;
40012;SDS011;37387;42.672;23.334;2022-11-20T06:10:02;3.8;;;0.9;;
40012;SDS011;37387;42.672;23.334;2022-11-20T06:11:03;2.8;;;0.8;;
40012;SDS011;37387;42.672;23.334;2022-11-20T06:12:02;2.6;;;0.9;;
40012;SDS011;37387;42.672;23.334;2022-11-20T06:13:02;2.6;;;0.8;;
40012;SDS011;37387;42.672;23.334;2022-11-20T06:14:02;5.7;;;1.3;;
40012;SDS011;37387;42.672;23.334;2022-11-20T06:15:03;5.7;;;0.9;;
40012;SDS011;37387;42.672;23.334;2022-11-20T06:16:02;4.2;;;1.1;;
40012;SDS011;37387;42.672;23.334;2022-11-20T06:17:02;4.2;;;0.8;;
40012;SDS011;37387;42.672;23.334;2022-11-20T06:18:02;3.8;;;1.0;;
40012;SDS011;37387;42.672;23.334;2022-11-20T06:19:02;3.0;;;0.8;;
40012;SDS011;37387;42.672;23.334;2022-11-20T06:20:03;3.0;;;1.0;;
40012;SDS011;37387;42.672;23.334;2022-11-20T06:22:03;4.1;;;0.7;;
40012;SDS011;37387;42.672;23.334;2022-11-20T06:23:03;2.5;;;0.8;;
40012;SDS011;37387;42.672;23.334;2022-11-20T06:25:02;2.5;;;0.9;;
40012;SDS011;37387;42.672;23.334;2022-11-20T06:26:04;4.2;;;1.0;;
40012;SDS011;37387;42.672;23.334;2022-11-20T06:27:03;2.7;;;0.9;;
40012;SDS011;37387;42.672;23.334;2022-11-20T06:28:03;4.9;;;1.2;;
40012;SDS011;37387;42.672;23.334;2022-11-20T06:29:03;4.9;;;0.6;;
40012;SDS011;37387;42.672;23.334;2022-11-20T06:30:03;2.1;;;0.7;;
40012;SDS011;37387;42.672;23.334;2022-11-20T06:31:03;2.8;;;0.9;;
40012;SDS011;37387;42.672;23.334;2022-11-20T06:33:03;3.2;;;1.1;;
40012;SDS011;37387;42.672;23.334;2022-11-20T06:34:03;3.7;;;0.7;;
40012;SDS011;37387;42.672;23.334;2022-11-20T06:35:03;2.8;;;1.1;;
40012;SDS011;37387;42.672;23.334;2022-11-20T06:36:03;4.5;;;0.8;;
40012;SDS011;37387;42.672;23.334;2022-11-20T06:39:03;2.6;;;1.0;;
40012;SDS011;37387;42.672;23.334;2022-11-20T06:40:04;2.8;;;0.9;;
40012;SDS011;37387;42.672;23.334;2022-11-20T06:41:04;4.1;;;0.7;;
40012;SDS011;37387;42.672;23.334;2022-11-20T06:42:03;1.3;;;0.6;;
40012;SDS011;37387;42.672;23.334;2022-11-20T06:43:03;1.3;;;1.3;;
40012;SDS011;37387;42.672;23.334;2022-11-20T06:44:04;3.1;;;0.7;;
40012;SDS011;37387;42.672;23.334;2022-11-20T06:46:04;4.5;;;0.8;;
40012;SDS011;37387;42.672;23.334;2022-11-20T06:47:04;4.5;;;0.9;;
40012;SDS011;37387;42.672;23.334;2022-11-20T06:48:04;2.3;;;0.8;;
40012;SDS011;37387;42.672;23.334;2022-11-20T06:49:04;2.9;;;0.6;;
40012;SDS011;37387;42.672;23.334;2022-11-20T06:50:04;2.9;;;0.8;;
40012;SDS011;37387;42.672;23.334;2022-11-20T06:52:04;2.1;;;1.0;;
40012;SDS011;37387;42.672;23.334;2022-11-20T06:53:04;3.5;;;0.7;;
40012;SDS011;37387;42.672;23.334;2022-11-20T06:54:04;2.6;;;0.8;;
40012;SDS011;37387;42.672;23.334;2022-11-20T06:55:05;2.9;;;0.7;;
40012;SDS011;37387;42.672;23.334;2022-11-20T06:57:04;2.5;;;0.8;;
40012;SDS011;37387;42.672;23.334;2022-11-20T06:59:04;2.8;;;0.7;;
40012;SDS011;37387;42.672;23.334;2022-11-20T07:00:05;2.1;;;0.8;;
40012;SDS011;37387;42.672;23.334;2022-11-20T07:01:05;4.4;;;1.0;;
40012;SDS011;37387;42.672;23.334;2022-11-20T07:02:05;4.0;;;5.4;;
40012;SDS011;37387;42.672;23.334;2022-11-20T07:03:05;8.7;;;2.6;;
40012;SDS011;37387;42.672;23.334;2022-11-20T07:04:05;3.6;;;1.1;;
40012;SDS011;37387;42.672;23.334;2022-11-20T07:05:05;3.6;;;0.8;;
40012;SDS011;37387;42.672;23.334;2022-11-20T07:07:05;3.1;;;1.2;;
40012;SDS011;37387;42.672;23.334;2022-11-20T07:08:05;2.6;;;1.0;;
40012;SDS011;37387;42.672;23.334;2022-11-20T07:09:05;2.6;;;1.3;;
40012;SDS011;37387;42.672;23.334;2022-11-20T07:10:05;5.2;;;1.7;;
40012;SDS011;37387;42.672;23.334;2022-11-20T07:11:06;5.2;;;1.1;;
40012;SDS011;37387;42.672;23.334;2022-11-20T07:12:05;4.3;;;0.8;;
40012;SDS011;37387;42.672;23.334;2022-11-20T07:13:05;3.6;;;0.7;;
40012;SDS011;37387;42.672;23.334;2022-11-20T07:14:05;5.2;;;1.0;;
40012;SDS011;37387;42.672;23.334;2022-11-20T07:15:06;4.7;;;1.7;;
40012;SDS011;37387;42.672;23.334;2022-11-20T07:16:06;4.7;;;1.6;;
40012;SDS011;37387;42.672;23.334;2022-11-20T07:17:05;4.3;;;1.1;;
40012;SDS011;37387;42.672;23.334;2022-11-20T07:18:05;4.6;;;0.9;;
40012;SDS011;37387;42.672;23.334;2022-11-20T07:19:05;3.5;;;1.0;;
40012;SDS011;37387;42.672;23.334;2022-11-20T07:20:06;3.5;;;1.4;;
40012;SDS011;37387;42.672;23.334;2022-11-20T07:21:06;6.1;;;0.6;;
40012;SDS011;37387;42.672;23.334;2022-11-20T07:22:05;2.0;;;0.8;;
40012;SDS011;37387;42.672;23.334;2022-11-20T07:23:06;2.5;;;0.5;;
40012;SDS011;37387;42.672;23.334;2022-11-20T07:24:06;3.0;;;0.6;;
40012;SDS011;37387;42.672;23.334;2022-11-20T07:25:07;3.0;;;0.4;;
40012;SDS011;37387;42.672;23.334;2022-11-20T07:26:06;1.6;;;0.7;;
40012;SDS011;37387;42.672;23.334;2022-11-20T07:27:06;1.3;;;0.6;;
40012;SDS011;37387;42.672;23.334;2022-11-20T07:28:06;1.3;;;0.7;;
40012;SDS011;37387;42.672;23.334;2022-11-20T07:29:06;4.2;;;0.6;;
40012;SDS011;37387;42.672;23.334;2022-11-20T07:31:06;1.1;;;0.8;;
40012;SDS011;37387;42.672;23.334;2022-11-20T07:32:06;4.3;;;0.7;;
40012;SDS011;37387;42.672;23.334;2022-11-20T07:33:06;2.8;;;2.0;;
40012;SDS011;37387;42.672;23.334;2022-11-20T07:34:06;2.4;;;0.7;;
40012;SDS011;37387;42.672;23.334;2022-11-20T07:35:07;1.8;;;0.6;;
40012;SDS011;37387;42.672;23.334;2022-11-20T07:36:07;1.8;;;0.8;;
40012;SDS011;37387;42.672;23.334;2022-11-20T07:37:06;5.4;;;1.2;;